Terminal Aerodrome Forecast
Issued by NWS

Home | Current Version | Previous Version | Text Only | Print | Product List | Glossary On
Versions: 1 2 3 4 5 6 7 8 9 10 11
000
FTUS44 KCRP 212331
TAFLRD
TAF
KLRD 212331Z 2200/2224 13016G24KT P6SM SCT250
     FM220600 14011KT P6SM FEW018
     FM221500 16012G18KT P6SM SCT250
     FM222100 13016G23KT P6SM FEW100=

USA.gov is the U.S. government's official web portal to all federal, state and local government web resources and services.